Wenzhou, China
Current Conditions -  °F | °C
As of 2:00 PM on Saturday 29 Nov 2014 (Local Time) from ZSNB Reporting Station
Haze Haze  
Wind Chill: 64°   Ceiling: 2000
Heat Index: 64°   Visibility: 1.8mi
Dew Point: 57°   Wind: 4mph
Humidity: 77%   Direction: 170°S
Pressure: 30"   Gusts: NA
Location:  28.02°N, 120.65°E
Report Text: ZSNB 290600Z 17002MPS 3000 BR BKN020 18/14 Q1016 NOSIG
Loading
Personal Weather Stations






























Interactive Weather Map New forecast layout! Learn more

10-Day Weather Forecast

Advertisements
Track Severe Weather on mobile